sensor_id;sensor_type;location;lat;lon;timestamp;pressure;altitude;pressure_sealevel;temperature;humidity
49541;BME280;35432;43.566;1.398;2023-03-31T00:01:09;99802.34;;;15.11;61.13
49541;BME280;35432;43.566;1.398;2023-03-31T00:03:35;99805.84;;;15.12;60.97
49541;BME280;35432;43.566;1.398;2023-03-31T00:06:03;99812.84;;;15.14;61.15
49541;BME280;35432;43.566;1.398;2023-03-31T00:08:30;99827.78;;;15.17;60.92
49541;BME280;35432;43.566;1.398;2023-03-31T00:11:00;99822.44;;;15.18;60.92
49541;BME280;35432;43.566;1.398;2023-03-31T00:13:26;99805.69;;;15.16;60.91
49541;BME280;35432;43.566;1.398;2023-03-31T00:16:01;99790.06;;;15.07;61.56
49541;BME280;35432;43.566;1.398;2023-03-31T00:18:27;99785.75;;;15.03;61.38
49541;BME280;35432;43.566;1.398;2023-03-31T00:20:54;99792.88;;;15.02;61.28
49541;BME280;35432;43.566;1.398;2023-03-31T00:23:23;99795.53;;;15.02;61.61
49541;BME280;35432;43.566;1.398;2023-03-31T00:25:55;99809.53;;;15.06;61.42
49541;BME280;35432;43.566;1.398;2023-03-31T00:28:20;99821.00;;;15.08;61.13
49541;BME280;35432;43.566;1.398;2023-03-31T00:30:46;99804.22;;;15.06;61.35
49541;BME280;35432;43.566;1.398;2023-03-31T00:33:12;99795.66;;;14.98;61.85
49541;BME280;35432;43.566;1.398;2023-03-31T00:35:38;99800.09;;;14.97;61.80
49541;BME280;35432;43.566;1.398;2023-03-31T00:38:04;99785.31;;;14.88;62.40
49541;BME280;35432;43.566;1.398;2023-03-31T00:40:33;99781.09;;;14.81;62.70
49541;BME280;35432;43.566;1.398;2023-03-31T00:42:59;99776.81;;;14.77;62.57
49541;BME280;35432;43.566;1.398;2023-03-31T00:45:27;99768.13;;;14.72;63.12
49541;BME280;35432;43.566;1.398;2023-03-31T00:50:25;99783.84;;;14.78;62.51
49541;BME280;35432;43.566;1.398;2023-03-31T00:53:07;99799.66;;;14.81;62.64
49541;BME280;35432;43.566;1.398;2023-03-31T00:55:39;99790.03;;;14.78;62.56
49541;BME280;35432;43.566;1.398;2023-03-31T00:58:07;99787.50;;;14.74;63.06
49541;BME280;35432;43.566;1.398;2023-03-31T01:00:39;99771.69;;;14.71;62.90
49541;BME280;35432;43.566;1.398;2023-03-31T01:03:06;99796.53;;;14.67;63.35
49541;BME280;35432;43.566;1.398;2023-03-31T01:05:46;99789.56;;;14.62;63.59
49541;BME280;35432;43.566;1.398;2023-03-31T01:08:15;99801.00;;;14.64;63.15
49541;BME280;35432;43.566;1.398;2023-03-31T01:10:45;99800.00;;;14.69;62.83
49541;BME280;35432;43.566;1.398;2023-03-31T01:13:14;99808.84;;;14.68;63.09
49541;BME280;35432;43.566;1.398;2023-03-31T01:15:41;99821.28;;;14.66;63.21
49541;BME280;35432;43.566;1.398;2023-03-31T01:18:08;99814.34;;;14.61;63.29
49541;BME280;35432;43.566;1.398;2023-03-31T01:21:05;99826.69;;;14.62;63.55
49541;BME280;35432;43.566;1.398;2023-03-31T01:34:51;99802.69;;;14.35;64.52
49541;BME280;35432;43.566;1.398;2023-03-31T01:43:22;99797.53;;;14.29;64.67
49541;BME280;35432;43.566;1.398;2023-03-31T01:46:57;99811.69;;;14.28;64.38
49541;BME280;35432;43.566;1.398;2023-03-31T01:49:15;99809.09;;;14.27;64.64
49541;BME280;35432;43.566;1.398;2023-03-31T01:51:50;99797.69;;;14.23;64.90
49541;BME280;35432;43.566;1.398;2023-03-31T01:54:34;99805.66;;;14.21;65.17
49541;BME280;35432;43.566;1.398;2023-03-31T01:57:23;99805.75;;;14.18;65.23
49541;BME280;35432;43.566;1.398;2023-03-31T02:02:38;99820.88;;;14.15;65.11
49541;BME280;35432;43.566;1.398;2023-03-31T02:05:10;99827.81;;;14.19;64.64
49541;BME280;35432;43.566;1.398;2023-03-31T02:07:46;99842.81;;;14.20;64.62
49541;BME280;35432;43.566;1.398;2023-03-31T02:10:15;99826.91;;;14.20;64.66
49541;BME280;35432;43.566;1.398;2023-03-31T02:12:43;99820.00;;;14.14;65.12
49541;BME280;35432;43.566;1.398;2023-03-31T02:15:13;99843.00;;;14.12;64.86
49541;BME280;35432;43.566;1.398;2023-03-31T02:17:43;99835.09;;;14.11;64.89
49541;BME280;35432;43.566;1.398;2023-03-31T02:20:11;99818.53;;;14.02;65.71
49541;BME280;35432;43.566;1.398;2023-03-31T02:22:42;99810.84;;;13.93;66.10
49541;BME280;35432;43.566;1.398;2023-03-31T02:25:12;99802.09;;;13.89;65.93
49541;BME280;35432;43.566;1.398;2023-03-31T02:27:42;99812.75;;;13.88;65.70
49541;BME280;35432;43.566;1.398;2023-03-31T02:30:10;99825.00;;;13.90;65.72
49541;BME280;35432;43.566;1.398;2023-03-31T02:32:38;99835.50;;;13.93;65.54
49541;BME280;35432;43.566;1.398;2023-03-31T02:35:08;99829.31;;;13.95;65.55
49541;BME280;35432;43.566;1.398;2023-03-31T02:37:34;99824.91;;;13.95;65.52
49541;BME280;35432;43.566;1.398;2023-03-31T02:40:05;99821.50;;;13.90;65.81
49541;BME280;35432;43.566;1.398;2023-03-31T02:42:36;99835.69;;;13.86;66.03
49541;BME280;35432;43.566;1.398;2023-03-31T02:45:06;99850.75;;;13.84;65.86
49541;BME280;35432;43.566;1.398;2023-03-31T02:47:51;99857.91;;;13.80;65.91
49541;BME280;35432;43.566;1.398;2023-03-31T02:50:16;99850.97;;;13.76;66.14
49541;BME280;35432;43.566;1.398;2023-03-31T02:52:50;99857.09;;;13.76;66.00
49541;BME280;35432;43.566;1.398;2023-03-31T02:55:45;99850.97;;;13.74;66.23
49541;BME280;35432;43.566;1.398;2023-03-31T02:58:37;99844.78;;;13.75;66.03
49541;BME280;35432;43.566;1.398;2023-03-31T03:07:04;99848.34;;;13.74;66.00
49541;BME280;35432;43.566;1.398;2023-03-31T03:09:55;99850.25;;;13.68;66.42
49541;BME280;35432;43.566;1.398;2023-03-31T03:17:31;99859.00;;;13.70;65.94
49541;BME280;35432;43.566;1.398;2023-03-31T03:20:00;99858.91;;;13.74;65.68
49541;BME280;35432;43.566;1.398;2023-03-31T03:22:26;99846.59;;;13.73;66.18
49541;BME280;35432;43.566;1.398;2023-03-31T03:24:52;99838.63;;;13.75;65.99
49541;BME280;35432;43.566;1.398;2023-03-31T03:27:18;99851.88;;;13.75;66.09
49541;BME280;35432;43.566;1.398;2023-03-31T03:29:44;99854.50;;;13.75;65.97
49541;BME280;35432;43.566;1.398;2023-03-31T03:32:09;99847.50;;;13.72;65.88
49541;BME280;35432;43.566;1.398;2023-03-31T03:34:35;99854.53;;;13.73;65.74
49541;BME280;35432;43.566;1.398;2023-03-31T03:37:00;99850.06;;;13.75;65.75
49541;BME280;35432;43.566;1.398;2023-03-31T03:39:26;99842.13;;;13.75;65.79
49541;BME280;35432;43.566;1.398;2023-03-31T03:41:51;99854.44;;;13.78;65.73
49541;BME280;35432;43.566;1.398;2023-03-31T03:44:16;99856.19;;;13.77;65.58
49541;BME280;35432;43.566;1.398;2023-03-31T03:46:42;99849.16;;;13.78;65.63
49541;BME280;35432;43.566;1.398;2023-03-31T03:49:07;99851.81;;;13.76;65.78
49541;BME280;35432;43.566;1.398;2023-03-31T03:51:33;99856.28;;;13.73;65.86
49541;BME280;35432;43.566;1.398;2023-03-31T03:53:58;99859.00;;;13.71;66.04
49541;BME280;35432;43.566;1.398;2023-03-31T03:56:23;99860.81;;;13.69;66.07
49541;BME280;35432;43.566;1.398;2023-03-31T03:58:49;99868.78;;;13.68;66.16
49541;BME280;35432;43.566;1.398;2023-03-31T04:01:14;99868.00;;;13.62;66.21
49541;BME280;35432;43.566;1.398;2023-03-31T04:03:40;99869.78;;;13.62;66.28
49541;BME280;35432;43.566;1.398;2023-03-31T04:06:06;99875.13;;;13.60;66.18
49541;BME280;35432;43.566;1.398;2023-03-31T04:08:31;99876.88;;;13.60;66.28
49541;BME280;35432;43.566;1.398;2023-03-31T04:10:56;99887.53;;;13.57;66.34
49541;BME280;35432;43.566;1.398;2023-03-31T04:13:22;99891.91;;;13.58;66.29
49541;BME280;35432;43.566;1.398;2023-03-31T04:15:47;99892.81;;;13.57;66.31
49541;BME280;35432;43.566;1.398;2023-03-31T04:18:13;99899.94;;;13.55;66.47
49541;BME280;35432;43.566;1.398;2023-03-31T04:20:53;99902.56;;;13.56;66.17
49541;BME280;35432;43.566;1.398;2023-03-31T04:23:35;99907.03;;;13.53;66.84
49541;BME280;35432;43.566;1.398;2023-03-31T04:26:08;99908.00;;;13.48;66.66
49541;BME280;35432;43.566;1.398;2023-03-31T04:28:34;99910.72;;;13.45;66.81
49541;BME280;35432;43.566;1.398;2023-03-31T04:31:01;99913.41;;;13.42;67.00
49541;BME280;35432;43.566;1.398;2023-03-31T04:33:27;99913.47;;;13.39;67.12
49541;BME280;35432;43.566;1.398;2023-03-31T04:35:52;99928.47;;;13.37;66.92
49541;BME280;35432;43.566;1.398;2023-03-31T04:38:20;99939.06;;;13.37;67.29
49541;BME280;35432;43.566;1.398;2023-03-31T04:40:50;99936.53;;;13.32;67.65
49541;BME280;35432;43.566;1.398;2023-03-31T04:43:17;99934.75;;;13.33;67.58
49541;BME280;35432;43.566;1.398;2023-03-31T04:45:43;99935.66;;;13.32;67.59
49541;BME280;35432;43.566;1.398;2023-03-31T04:48:09;99949.75;;;13.32;67.82
49541;BME280;35432;43.566;1.398;2023-03-31T04:50:35;99955.00;;;13.34;67.62
49541;BME280;35432;43.566;1.398;2023-03-31T04:53:01;99961.16;;;13.34;67.95
49541;BME280;35432;43.566;1.398;2023-03-31T04:55:27;99969.97;;;13.35;68.12
49541;BME280;35432;43.566;1.398;2023-03-31T04:57:52;99968.19;;;13.35;68.18
49541;BME280;35432;43.566;1.398;2023-03-31T05:00:19;99978.72;;;13.37;68.18
49541;BME280;35432;43.566;1.398;2023-03-31T05:02:44;99982.19;;;13.41;68.51
49541;BME280;35432;43.566;1.398;2023-03-31T05:05:10;99984.84;;;13.41;68.37
49541;BME280;35432;43.566;1.398;2023-03-31T05:07:35;99983.94;;;13.42;68.55
49541;BME280;35432;43.566;1.398;2023-03-31T05:10:01;99983.91;;;13.45;68.59
49541;BME280;35432;43.566;1.398;2023-03-31T05:12:26;99992.72;;;13.45;68.63
49541;BME280;35432;43.566;1.398;2023-03-31T05:14:51;99989.19;;;13.45;68.79
49541;BME280;35432;43.566;1.398;2023-03-31T05:17:17;99999.78;;;13.45;68.65
49541;BME280;35432;43.566;1.398;2023-03-31T05:19:43;100000.59;;;13.48;68.84
49541;BME280;35432;43.566;1.398;2023-03-31T05:22:08;100005.81;;;13.52;68.67
49541;BME280;35432;43.566;1.398;2023-03-31T05:24:34;100014.66;;;13.51;68.71
49541;BME280;35432;43.566;1.398;2023-03-31T05:26:59;100020.84;;;13.51;68.81
49541;BME280;35432;43.566;1.398;2023-03-31T05:29:25;100021.66;;;13.53;68.67
49541;BME280;35432;43.566;1.398;2023-03-31T05:31:51;100029.50;;;13.58;68.71
49541;BME280;35432;43.566;1.398;2023-03-31T05:34:18;100025.09;;;13.58;68.69
49541;BME280;35432;43.566;1.398;2023-03-31T05:36:44;100026.81;;;13.59;68.75
49541;BME280;35432;43.566;1.398;2023-03-31T05:39:12;100024.19;;;13.59;68.83
49541;BME280;35432;43.566;1.398;2023-03-31T05:41:38;100030.28;;;13.63;68.63
49541;BME280;35432;43.566;1.398;2023-03-31T05:44:04;100031.13;;;13.65;68.42
49541;BME280;35432;43.566;1.398;2023-03-31T05:46:29;100031.97;;;13.67;68.35
49541;BME280;35432;43.566;1.398;2023-03-31T05:48:55;100031.06;;;13.68;68.45
49541;BME280;35432;43.566;1.398;2023-03-31T05:51:21;100037.13;;;13.72;68.43
49541;BME280;35432;43.566;1.398;2023-03-31T05:53:47;100048.53;;;13.75;68.07
49541;BME280;35432;43.566;1.398;2023-03-31T05:56:12;100052.88;;;13.80;68.08
49541;BME280;35432;43.566;1.398;2023-03-31T05:58:38;100047.50;;;13.83;68.16
49541;BME280;35432;43.566;1.398;2023-03-31T06:01:05;100053.63;;;13.85;67.89
49541;BME280;35432;43.566;1.398;2023-03-31T06:03:35;100052.69;;;13.89;67.88
49541;BME280;35432;43.566;1.398;2023-03-31T06:06:01;100037.66;;;13.89;67.75
49541;BME280;35432;43.566;1.398;2023-03-31T06:08:29;100046.41;;;13.93;67.71
49541;BME280;35432;43.566;1.398;2023-03-31T06:10:55;100041.97;;;13.95;67.54
49541;BME280;35432;43.566;1.398;2023-03-31T06:13:22;100043.63;;;13.99;67.41
49541;BME280;35432;43.566;1.398;2023-03-31T06:15:58;100049.75;;;14.03;67.54
49541;BME280;35432;43.566;1.398;2023-03-31T06:18:25;100044.38;;;14.06;67.37
49541;BME280;35432;43.566;1.398;2023-03-31T06:20:53;100027.59;;;14.05;67.70
49541;BME280;35432;43.566;1.398;2023-03-31T06:23:20;100029.34;;;14.06;67.82
49541;BME280;35432;43.566;1.398;2023-03-31T06:25:45;100032.81;;;14.09;67.37
49541;BME280;35432;43.566;1.398;2023-03-31T06:28:11;100045.97;;;14.13;67.22
49541;BME280;35432;43.566;1.398;2023-03-31T06:30:36;100049.44;;;14.17;67.11
49541;BME280;35432;43.566;1.398;2023-03-31T06:33:02;100051.94;;;14.23;67.01
49541;BME280;35432;43.566;1.398;2023-03-31T06:35:27;100051.88;;;14.26;67.17
49541;BME280;35432;43.566;1.398;2023-03-31T06:37:52;100058.00;;;14.28;66.96
49541;BME280;35432;43.566;1.398;2023-03-31T06:40:18;100056.19;;;14.30;66.89
49541;BME280;35432;43.566;1.398;2023-03-31T06:42:43;100057.00;;;14.32;66.72
49541;BME280;35432;43.566;1.398;2023-03-31T06:45:09;100062.31;;;14.32;66.61
49541;BME280;35432;43.566;1.398;2023-03-31T06:47:34;100063.19;;;14.33;66.76
49541;BME280;35432;43.566;1.398;2023-03-31T06:50:02;100067.56;;;14.35;66.72
49541;BME280;35432;43.566;1.398;2023-03-31T06:52:27;100063.13;;;14.36;66.41
49541;BME280;35432;43.566;1.398;2023-03-31T06:54:53;100066.59;;;14.38;66.13
49541;BME280;35432;43.566;1.398;2023-03-31T06:57:18;100072.72;;;14.42;66.13
49541;BME280;35432;43.566;1.398;2023-03-31T06:59:44;100067.34;;;14.45;65.99
49541;BME280;35432;43.566;1.398;2023-03-31T07:02:10;100070.81;;;14.47;65.86
49541;BME280;35432;43.566;1.398;2023-03-31T07:04:35;100065.44;;;14.50;65.77
49541;BME280;35432;43.566;1.398;2023-03-31T07:07:01;100076.81;;;14.55;65.80
49541;BME280;35432;43.566;1.398;2023-03-31T07:09:26;100078.50;;;14.59;65.69
49541;BME280;35432;43.566;1.398;2023-03-31T07:11:52;100088.13;;;14.63;65.70
49541;BME280;35432;43.566;1.398;2023-03-31T07:14:17;100083.56;;;14.69;65.52
49541;BME280;35432;43.566;1.398;2023-03-31T07:16:42;100093.22;;;14.73;65.66
49541;BME280;35432;43.566;1.398;2023-03-31T07:19:08;100090.53;;;14.74;65.54
49541;BME280;35432;43.566;1.398;2023-03-31T07:21:35;100087.81;;;14.77;65.51
49541;BME280;35432;43.566;1.398;2023-03-31T07:24:00;100084.97;;;14.85;65.46
49541;BME280;35432;43.566;1.398;2023-03-31T07:26:26;100078.59;;;14.92;65.51
49541;BME280;35432;43.566;1.398;2023-03-31T07:28:51;100083.66;;;15.02;65.28
49541;BME280;35432;43.566;1.398;2023-03-31T07:31:20;100079.97;;;15.09;65.08
49541;BME280;35432;43.566;1.398;2023-03-31T07:33:46;100080.53;;;15.20;64.89
49541;BME280;35432;43.566;1.398;2023-03-31T07:36:11;100066.88;;;15.36;64.65
49541;BME280;35432;43.566;1.398;2023-03-31T07:38:37;100074.19;;;15.59;64.35
49541;BME280;35432;43.566;1.398;2023-03-31T07:41:02;100075.59;;;15.73;63.57
49541;BME280;35432;43.566;1.398;2023-03-31T07:43:28;100067.47;;;15.77;63.34
49541;BME280;35432;43.566;1.398;2023-03-31T07:45:53;100080.81;;;15.76;63.17
49541;BME280;35432;43.566;1.398;2023-03-31T07:48:19;100086.97;;;15.76;63.37
49541;BME280;35432;43.566;1.398;2023-03-31T07:50:44;100087.97;;;15.74;63.29
49541;BME280;35432;43.566;1.398;2023-03-31T07:53:10;100089.78;;;15.72;63.13
49541;BME280;35432;43.566;1.398;2023-03-31T07:55:35;100090.84;;;15.64;63.09
49541;BME280;35432;43.566;1.398;2023-03-31T07:58:01;100084.81;;;15.59;63.08
49541;BME280;35432;43.566;1.398;2023-03-31T08:00:26;100088.56;;;15.52;63.28
49541;BME280;35432;43.566;1.398;2023-03-31T08:02:52;100087.84;;;15.45;63.18
49541;BME280;35432;43.566;1.398;2023-03-31T08:05:18;100093.31;;;15.39;63.28
49541;BME280;35432;43.566;1.398;2023-03-31T08:07:47;100092.50;;;15.37;63.29
49541;BME280;35432;43.566;1.398;2023-03-31T08:10:17;100092.69;;;15.29;63.11
49541;BME280;35432;43.566;1.398;2023-03-31T08:12:43;100100.03;;;15.18;62.22
49541;BME280;35432;43.566;1.398;2023-03-31T08:15:09;100098.38;;;15.14;63.07
49541;BME280;35432;43.566;1.398;2023-03-31T08:17:35;100094.06;;;15.11;63.00
49541;BME280;35432;43.566;1.398;2023-03-31T08:20:01;100101.94;;;15.13;63.42
49541;BME280;35432;43.566;1.398;2023-03-31T08:22:26;100096.72;;;15.11;63.63
49541;BME280;35432;43.566;1.398;2023-03-31T08:24:52;100098.53;;;15.09;63.21
49541;BME280;35432;43.566;1.398;2023-03-31T08:27:17;100104.66;;;15.11;63.33
49541;BME280;35432;43.566;1.398;2023-03-31T08:29:43;100107.22;;;15.14;63.38
49541;BME280;35432;43.566;1.398;2023-03-31T08:32:08;100106.31;;;15.15;63.03
49541;BME280;35432;43.566;1.398;2023-03-31T08:34:33;100104.59;;;15.14;63.07
49541;BME280;35432;43.566;1.398;2023-03-31T08:37:00;100116.94;;;15.15;63.04
49541;BME280;35432;43.566;1.398;2023-03-31T08:39:26;100113.44;;;15.13;63.03
49541;BME280;35432;43.566;1.398;2023-03-31T08:42:15;100118.84;;;15.10;63.15
49541;BME280;35432;43.566;1.398;2023-03-31T08:45:03;100111.78;;;15.09;63.48
49541;BME280;35432;43.566;1.398;2023-03-31T08:47:28;100117.09;;;15.09;63.46
49541;BME280;35432;43.566;1.398;2023-03-31T08:50:13;100125.06;;;15.09;63.52
49541;BME280;35432;43.566;1.398;2023-03-31T08:52:51;100122.41;;;15.09;63.83
49541;BME280;35432;43.566;1.398;2023-03-31T08:55:24;100123.16;;;15.13;63.48
49541;BME280;35432;43.566;1.398;2023-03-31T08:58:08;100117.88;;;15.13;63.28
49541;BME280;35432;43.566;1.398;2023-03-31T09:03:32;100127.63;;;15.12;62.88
49541;BME280;35432;43.566;1.398;2023-03-31T09:06:05;100130.31;;;15.11;62.74
49541;BME280;35432;43.566;1.398;2023-03-31T09:08:37;100113.56;;;15.09;63.14
49541;BME280;35432;43.566;1.398;2023-03-31T09:11:27;100134.78;;;15.09;62.75
49541;BME280;35432;43.566;1.398;2023-03-31T09:17:19;100121.50;;;15.10;62.87
49541;BME280;35432;43.566;1.398;2023-03-31T09:19:40;100124.16;;;15.09;63.04
49541;BME280;35432;43.566;1.398;2023-03-31T09:22:16;100124.19;;;15.07;63.46
49541;BME280;35432;43.566;1.398;2023-03-31T09:24:51;100126.00;;;15.05;63.05
49541;BME280;35432;43.566;1.398;2023-03-31T09:27:20;100128.63;;;15.06;62.94
49541;BME280;35432;43.566;1.398;2023-03-31T09:29:57;100132.16;;;15.07;63.07
49541;BME280;35432;43.566;1.398;2023-03-31T09:32:29;100133.94;;;15.06;62.83
49541;BME280;35432;43.566;1.398;2023-03-31T09:35:15;100133.13;;;15.04;62.57
49541;BME280;35432;43.566;1.398;2023-03-31T09:37:41;100146.31;;;15.06;62.71
49541;BME280;35432;43.566;1.398;2023-03-31T09:40:06;100158.78;;;15.02;62.24
49541;BME280;35432;43.566;1.398;2023-03-31T09:42:34;100165.00;;;15.01;61.97
49541;BME280;35432;43.566;1.398;2023-03-31T09:45:01;100165.91;;;15.00;62.22
49541;BME280;35432;43.566;1.398;2023-03-31T09:47:40;100167.75;;;14.97;61.91
49541;BME280;35432;43.566;1.398;2023-03-31T09:50:08;100158.16;;;14.92;61.68
49541;BME280;35432;43.566;1.398;2023-03-31T09:52:36;100147.53;;;14.92;61.72
49541;BME280;35432;43.566;1.398;2023-03-31T09:55:14;100140.41;;;14.95;61.76
49541;BME280;35432;43.566;1.398;2023-03-31T09:57:42;100134.09;;;15.00;61.74
49541;BME280;35432;43.566;1.398;2023-03-31T10:02:38;100128.22;;;15.24;61.39
49541;BME280;35432;43.566;1.398;2023-03-31T10:05:06;100129.72;;;15.34;61.13
49541;BME280;35432;43.566;1.398;2023-03-31T10:07:42;100127.00;;;15.37;60.68
49541;BME280;35432;43.566;1.398;2023-03-31T10:10:10;100134.81;;;15.42;60.58
49541;BME280;35432;43.566;1.398;2023-03-31T10:12:50;100132.22;;;15.40;60.13
49541;BME280;35432;43.566;1.398;2023-03-31T10:15:24;100133.94;;;15.41;60.35
49541;BME280;35432;43.566;1.398;2023-03-31T10:17:50;100131.22;;;15.44;60.00
49541;BME280;35432;43.566;1.398;2023-03-31T10:20:38;100116.22;;;15.42;59.65
49541;BME280;35432;43.566;1.398;2023-03-31T10:25:48;100112.25;;;15.60;59.37
49541;BME280;35432;43.566;1.398;2023-03-31T10:28:17;100099.44;;;15.74;59.16
49541;BME280;35432;43.566;1.398;2023-03-31T10:30:53;100106.09;;;15.91;58.80
49541;BME280;35432;43.566;1.398;2023-03-31T10:33:23;100103.22;;;15.99;58.27
49541;BME280;35432;43.566;1.398;2023-03-31T10:36:01;100098.66;;;16.02;57.80
49541;BME280;35432;43.566;1.398;2023-03-31T10:38:36;100102.09;;;16.06;57.84
49541;BME280;35432;43.566;1.398;2023-03-31T10:41:04;100102.19;;;16.04;57.21
49541;BME280;35432;43.566;1.398;2023-03-31T10:43:39;100091.47;;;16.07;57.40
49541;BME280;35432;43.566;1.398;2023-03-31T10:46:05;100092.97;;;16.16;57.24
49541;BME280;35432;43.566;1.398;2023-03-31T10:48:33;100090.22;;;16.19;56.94
49541;BME280;35432;43.566;1.398;2023-03-31T10:51:16;100089.22;;;16.22;56.24
49541;BME280;35432;43.566;1.398;2023-03-31T10:53:43;100086.47;;;16.25;56.11
49541;BME280;35432;43.566;1.398;2023-03-31T10:59:13;100088.31;;;16.23;55.35
49541;BME280;35432;43.566;1.398;2023-03-31T11:05:00;100096.88;;;16.04;55.94
49541;BME280;35432;43.566;1.398;2023-03-31T11:10:36;100102.31;;;16.00;56.38
49541;BME280;35432;43.566;1.398;2023-03-31T11:13:07;100097.03;;;15.98;56.12
49541;BME280;35432;43.566;1.398;2023-03-31T11:18:54;100080.03;;;16.04;55.78
49541;BME280;35432;43.566;1.398;2023-03-31T11:26:54;100085.34;;;16.04;55.09
49541;BME280;35432;43.566;1.398;2023-03-31T11:35:38;100061.25;;;16.10;55.34
49541;BME280;35432;43.566;1.398;2023-03-31T11:41:35;100066.34;;;16.18;53.86
49541;BME280;35432;43.566;1.398;2023-03-31T11:44:04;100067.16;;;16.20;54.03
49541;BME280;35432;43.566;1.398;2023-03-31T11:46:42;100053.78;;;16.23;53.80
49541;BME280;35432;43.566;1.398;2023-03-31T11:49:21;100058.13;;;16.26;53.58
49541;BME280;35432;43.566;1.398;2023-03-31T11:51:56;100046.63;;;16.25;52.81
49541;BME280;35432;43.566;1.398;2023-03-31T11:54:28;100050.06;;;16.29;53.46
49541;BME280;35432;43.566;1.398;2023-03-31T11:56:55;100038.03;;;16.45;53.60
49541;BME280;35432;43.566;1.398;2023-03-31T11:59:22;100044.69;;;16.59;53.31
49541;BME280;35432;43.566;1.398;2023-03-31T12:02:03;100035.06;;;16.82;52.26
49541;BME280;35432;43.566;1.398;2023-03-31T12:04:41;100040.03;;;16.92;52.23
49541;BME280;35432;43.566;1.398;2023-03-31T12:07:22;100036.34;;;16.97;51.97
49541;BME280;35432;43.566;1.398;2023-03-31T12:10:04;100027.44;;;16.99;52.08
49541;BME280;35432;43.566;1.398;2023-03-31T12:12:53;100022.88;;;17.03;51.65
49541;BME280;35432;43.566;1.398;2023-03-31T12:17:55;100030.78;;;17.04;49.88
49541;BME280;35432;43.566;1.398;2023-03-31T12:20:32;100034.44;;;17.02;49.11
49541;BME280;35432;43.566;1.398;2023-03-31T12:23:00;100038.16;;;16.96;49.26
49541;BME280;35432;43.566;1.398;2023-03-31T12:25:39;100031.94;;;16.96;49.55
49541;BME280;35432;43.566;1.398;2023-03-31T12:30:35;100033.41;;;17.06;49.48
49541;BME280;35432;43.566;1.398;2023-03-31T12:33:23;100029.22;;;16.99;49.14
49541;BME280;35432;43.566;1.398;2023-03-31T12:39:06;100031.09;;;16.95;49.55
49541;BME280;35432;43.566;1.398;2023-03-31T12:41:46;100042.09;;;16.84;49.30
49541;BME280;35432;43.566;1.398;2023-03-31T12:47:00;100031.97;;;16.69;49.64
49541;BME280;35432;43.566;1.398;2023-03-31T12:52:21;100032.06;;;16.65;49.91
49541;BME280;35432;43.566;1.398;2023-03-31T12:55:06;100005.94;;;16.52;49.74
49541;BME280;35432;43.566;1.398;2023-03-31T12:57:35;100006.09;;;16.47;49.80
49541;BME280;35432;43.566;1.398;2023-03-31T13:02:39;100013.06;;;16.23;50.00
49541;BME280;35432;43.566;1.398;2023-03-31T13:08:08;100026.19;;;15.99;51.52
49541;BME280;35432;43.566;1.398;2023-03-31T13:11:09;100038.03;;;15.87;53.01
49541;BME280;35432;43.566;1.398;2023-03-31T13:13:35;100037.19;;;15.85;54.57
49541;BME280;35432;43.566;1.398;2023-03-31T13:16:01;100026.91;;;15.74;56.18
49541;BME280;35432;43.566;1.398;2023-03-31T13:18:30;100043.13;;;15.63;57.09
49541;BME280;35432;43.566;1.398;2023-03-31T13:21:04;100033.94;;;15.43;58.03
49541;BME280;35432;43.566;1.398;2023-03-31T13:23:35;100028.09;;;15.32;58.28
49541;BME280;35432;43.566;1.398;2023-03-31T13:26:02;100027.19;;;15.31;58.45
49541;BME280;35432;43.566;1.398;2023-03-31T13:28:41;100027.16;;;15.33;59.37
49541;BME280;35432;43.566;1.398;2023-03-31T13:31:12;100018.13;;;15.40;58.79
49541;BME280;35432;43.566;1.398;2023-03-31T13:33:56;100017.00;;;15.49;58.49
49541;BME280;35432;43.566;1.398;2023-03-31T13:39:26;100015.31;;;15.76;58.02
49541;BME280;35432;43.566;1.398;2023-03-31T13:42:05;100014.69;;;15.98;57.88
49541;BME280;35432;43.566;1.398;2023-03-31T13:56:04;99991.44;;;17.14;54.49
49541;BME280;35432;43.566;1.398;2023-03-31T14:01:58;100003.72;;;16.91;53.06
49541;BME280;35432;43.566;1.398;2023-03-31T14:07:08;99998.78;;;16.81;53.37
49541;BME280;35432;43.566;1.398;2023-03-31T14:09:38;99991.50;;;16.86;52.83
49541;BME280;35432;43.566;1.398;2023-03-31T14:12:24;99975.72;;;16.81;52.60
49541;BME280;35432;43.566;1.398;2023-03-31T14:14:53;99984.28;;;16.89;52.36
49541;BME280;35432;43.566;1.398;2023-03-31T14:17:22;99979.13;;;16.85;51.55
49541;BME280;35432;43.566;1.398;2023-03-31T14:36:14;99967.63;;;17.59;49.41
49541;BME280;35432;43.566;1.398;2023-03-31T14:38:41;99968.06;;;17.94;47.64
49541;BME280;35432;43.566;1.398;2023-03-31T14:41:15;99960.16;;;18.15;47.09
49541;BME280;35432;43.566;1.398;2023-03-31T14:43:47;99948.66;;;18.14;45.86
49541;BME280;35432;43.566;1.398;2023-03-31T14:46:19;99965.00;;;18.27;45.76
49541;BME280;35432;43.566;1.398;2023-03-31T14:48:46;99958.16;;;18.42;45.40
49541;BME280;35432;43.566;1.398;2023-03-31T14:51:14;99939.19;;;18.50;43.94
49541;BME280;35432;43.566;1.398;2023-03-31T14:53:40;99958.00;;;18.47;42.72
49541;BME280;35432;43.566;1.398;2023-03-31T14:56:22;99949.84;;;18.50;42.92
49541;BME280;35432;43.566;1.398;2023-03-31T14:58:51;99942.88;;;18.68;42.89
49541;BME280;35432;43.566;1.398;2023-03-31T15:01:22;99946.47;;;18.67;41.42
49541;BME280;35432;43.566;1.398;2023-03-31T15:03:51;99942.13;;;18.64;41.69
49541;BME280;35432;43.566;1.398;2023-03-31T15:06:17;99939.84;;;18.55;41.44
49541;BME280;35432;43.566;1.398;2023-03-31T15:08:43;99936.88;;;18.63;41.75
49541;BME280;35432;43.566;1.398;2023-03-31T15:11:16;99943.00;;;18.65;40.70
49541;BME280;35432;43.566;1.398;2023-03-31T15:13:47;99938.72;;;18.61;41.15
49541;BME280;35432;43.566;1.398;2023-03-31T15:16:28;99959.16;;;18.40;41.65
49541;BME280;35432;43.566;1.398;2023-03-31T15:18:55;99965.94;;;18.26;42.00